sensor_id;sensor_type;location;lat;lon;timestamp;pressure;altitude;pressure_sealevel;temperature;humidity
42001;BME280;27689;48.390;10.856;2022-12-10T00:02:26;94857.63;;;1.16;100.00
42001;BME280;27689;48.390;10.856;2022-12-10T00:05:10;94850.13;;;1.13;100.00
42001;BME280;27689;48.390;10.856;2022-12-10T00:07:54;94844.84;;;1.14;100.00
42001;BME280;27689;48.390;10.856;2022-12-10T00:10:41;94853.66;;;1.12;100.00
42001;BME280;27689;48.390;10.856;2022-12-10T00:13:25;94856.00;;;1.15;100.00
42001;BME280;27689;48.390;10.856;2022-12-10T00:16:10;94855.53;;;1.10;100.00
42001;BME280;27689;48.390;10.856;2022-12-10T00:18:55;94860.56;;;1.11;100.00
42001;BME280;27689;48.390;10.856;2022-12-10T00:21:40;94874.03;;;1.15;100.00
42001;BME280;27689;48.390;10.856;2022-12-10T00:24:23;94868.88;;;1.15;100.00
42001;BME280;27689;48.390;10.856;2022-12-10T00:27:07;94867.00;;;1.17;100.00
42001;BME280;27689;48.390;10.856;2022-12-10T00:29:51;94853.28;;;1.16;100.00
42001;BME280;27689;48.390;10.856;2022-12-10T00:32:36;94858.47;;;1.16;100.00
42001;BME280;27689;48.390;10.856;2022-12-10T00:35:19;94861.84;;;1.17;100.00
42001;BME280;27689;48.390;10.856;2022-12-10T00:38:04;94854.22;;;1.15;100.00
42001;BME280;27689;48.390;10.856;2022-12-10T00:40:48;94858.47;;;1.16;100.00
42001;BME280;27689;48.390;10.856;2022-12-10T00:43:32;94873.00;;;1.17;100.00
42001;BME280;27689;48.390;10.856;2022-12-10T00:46:18;94874.25;;;1.23;100.00
42001;BME280;27689;48.390;10.856;2022-12-10T00:49:03;94864.31;;;1.18;100.00
42001;BME280;27689;48.390;10.856;2022-12-10T00:51:47;94876.13;;;1.21;100.00
42001;BME280;27689;48.390;10.856;2022-12-10T00:54:31;94863.03;;;1.13;100.00
42001;BME280;27689;48.390;10.856;2022-12-10T00:57:15;94872.06;;;1.18;100.00
42001;BME280;27689;48.390;10.856;2022-12-10T00:59:59;94877.31;;;1.17;100.00
42001;BME280;27689;48.390;10.856;2022-12-10T01:02:43;94892.41;;;1.21;100.00
42001;BME280;27689;48.390;10.856;2022-12-10T01:05:27;94893.25;;;1.22;100.00
42001;BME280;27689;48.390;10.856;2022-12-10T01:08:11;94889.84;;;1.21;100.00
42001;BME280;27689;48.390;10.856;2022-12-10T01:10:55;94878.03;;;1.19;100.00
42001;BME280;27689;48.390;10.856;2022-12-10T01:13:40;94881.78;;;1.15;100.00
42001;BME280;27689;48.390;10.856;2022-12-10T01:16:26;94882.00;;;1.12;100.00
42001;BME280;27689;48.390;10.856;2022-12-10T01:19:10;94893.03;;;1.14;100.00
42001;BME280;27689;48.390;10.856;2022-12-10T01:21:55;94884.72;;;1.10;100.00
42001;BME280;27689;48.390;10.856;2022-12-10T01:24:40;94877.69;;;1.12;100.00
42001;BME280;27689;48.390;10.856;2022-12-10T01:27:24;94877.31;;;1.05;100.00
42001;BME280;27689;48.390;10.856;2022-12-10T01:30:09;94883.88;;;1.10;100.00
42001;BME280;27689;48.390;10.856;2022-12-10T01:32:53;94881.53;;;1.06;100.00
42001;BME280;27689;48.390;10.856;2022-12-10T01:35:37;94886.69;;;1.06;100.00
42001;BME280;27689;48.390;10.856;2022-12-10T01:38:21;94888.47;;;1.06;100.00
42001;BME280;27689;48.390;10.856;2022-12-10T01:41:07;94886.59;;;1.08;100.00
42001;BME280;27689;48.390;10.856;2022-12-10T01:46:37;94896.19;;;1.06;100.00
42001;BME280;27689;48.390;10.856;2022-12-10T01:49:25;94892.91;;;1.04;100.00
42001;BME280;27689;48.390;10.856;2022-12-10T01:52:10;94881.94;;;1.02;100.00
42001;BME280;27689;48.390;10.856;2022-12-10T01:54:55;94881.00;;;1.03;100.00
42001;BME280;27689;48.390;10.856;2022-12-10T01:57:39;94886.00;;;1.04;100.00
42001;BME280;27689;48.390;10.856;2022-12-10T02:00:23;94881.09;;;1.01;100.00
42001;BME280;27689;48.390;10.856;2022-12-10T02:03:13;94892.13;;;1.03;100.00
42001;BME280;27689;48.390;10.856;2022-12-10T02:09:27;94900.19;;;0.99;100.00
42001;BME280;27689;48.390;10.856;2022-12-10T02:12:21;94893.28;;;0.99;100.00
42001;BME280;27689;48.390;10.856;2022-12-10T02:15:15;94894.13;;;1.00;100.00
42001;BME280;27689;48.390;10.856;2022-12-10T02:18:05;94888.97;;;1.00;100.00
42001;BME280;27689;48.390;10.856;2022-12-10T02:20:54;94889.66;;;1.02;100.00
42001;BME280;27689;48.390;10.856;2022-12-10T02:23:44;94890.47;;;1.02;100.00
42001;BME280;27689;48.390;10.856;2022-12-10T02:29:41;94878.75;;;0.98;100.00
42001;BME280;27689;48.390;10.856;2022-12-10T02:32:33;94882.75;;;1.02;100.00
42001;BME280;27689;48.390;10.856;2022-12-10T02:35:22;94875.00;;;1.02;100.00
42001;BME280;27689;48.390;10.856;2022-12-10T02:38:12;94884.50;;;1.02;100.00
42001;BME280;27689;48.390;10.856;2022-12-10T02:41:09;94875.25;;;0.99;100.00
42001;BME280;27689;48.390;10.856;2022-12-10T02:43:58;94854.97;;;0.95;100.00
42001;BME280;27689;48.390;10.856;2022-12-10T02:46:44;94858.25;;;0.97;100.00
42001;BME280;27689;48.390;10.856;2022-12-10T02:49:30;94856.59;;;0.96;100.00
42001;BME280;27689;48.390;10.856;2022-12-10T02:52:15;94859.53;;;0.91;100.00
42001;BME280;27689;48.390;10.856;2022-12-10T02:55:02;94871.72;;;0.89;100.00
42001;BME280;27689;48.390;10.856;2022-12-10T03:00:58;94872.69;;;0.88;100.00
42001;BME280;27689;48.390;10.856;2022-12-10T03:03:53;94864.69;;;0.91;100.00
42001;BME280;27689;48.390;10.856;2022-12-10T03:07:08;94854.25;;;0.93;100.00
42001;BME280;27689;48.390;10.856;2022-12-10T03:10:02;94846.53;;;0.93;100.00
42001;BME280;27689;48.390;10.856;2022-12-10T03:12:51;94852.06;;;0.88;100.00
42001;BME280;27689;48.390;10.856;2022-12-10T03:15:40;94876.75;;;0.91;100.00
42001;BME280;27689;48.390;10.856;2022-12-10T03:18:27;94873.03;;;0.84;100.00
42001;BME280;27689;48.390;10.856;2022-12-10T03:21:13;94878.88;;;0.86;100.00
42001;BME280;27689;48.390;10.856;2022-12-10T03:23:58;94867.75;;;0.85;100.00
42001;BME280;27689;48.390;10.856;2022-12-10T03:26:45;94866.00;;;0.86;100.00
42001;BME280;27689;48.390;10.856;2022-12-10T03:29:36;94861.28;;;0.91;100.00
42001;BME280;27689;48.390;10.856;2022-12-10T03:32:22;94866.56;;;0.89;100.00
42001;BME280;27689;48.390;10.856;2022-12-10T03:35:09;94878.41;;;0.92;100.00
42001;BME280;27689;48.390;10.856;2022-12-10T03:37:55;94876.75;;;0.91;100.00
42001;BME280;27689;48.390;10.856;2022-12-10T03:40:39;94878.78;;;0.87;100.00
42001;BME280;27689;48.390;10.856;2022-12-10T03:43:23;94879.81;;;0.85;100.00
42001;BME280;27689;48.390;10.856;2022-12-10T03:46:07;94879.00;;;0.84;100.00
42001;BME280;27689;48.390;10.856;2022-12-10T03:48:51;94888.38;;;0.85;100.00
42001;BME280;27689;48.390;10.856;2022-12-10T03:51:36;94885.81;;;0.85;100.00
42001;BME280;27689;48.390;10.856;2022-12-10T03:54:20;94893.53;;;0.85;100.00
42001;BME280;27689;48.390;10.856;2022-12-10T03:57:04;94891.06;;;0.84;100.00
42001;BME280;27689;48.390;10.856;2022-12-10T03:59:48;94899.63;;;0.84;100.00
42001;BME280;27689;48.390;10.856;2022-12-10T04:02:32;94896.13;;;0.85;100.00
42001;BME280;27689;48.390;10.856;2022-12-10T04:05:16;94882.53;;;0.83;100.00
42001;BME280;27689;48.390;10.856;2022-12-10T04:08:00;94873.25;;;0.81;100.00
42001;BME280;27689;48.390;10.856;2022-12-10T04:10:44;94866.47;;;0.80;100.00
42001;BME280;27689;48.390;10.856;2022-12-10T04:13:34;94878.31;;;0.82;100.00
42001;BME280;27689;48.390;10.856;2022-12-10T04:16:37;94879.13;;;0.83;100.00
42001;BME280;27689;48.390;10.856;2022-12-10T04:19:21;94873.84;;;0.84;100.00
42001;BME280;27689;48.390;10.856;2022-12-10T04:22:06;94875.59;;;0.84;100.00
42001;BME280;27689;48.390;10.856;2022-12-10T04:25:11;94876.19;;;0.87;100.00
42001;BME280;27689;48.390;10.856;2022-12-10T04:28:14;94877.03;;;0.88;100.00
42001;BME280;27689;48.390;10.856;2022-12-10T04:30:58;94890.03;;;0.86;100.00
42001;BME280;27689;48.390;10.856;2022-12-10T04:33:42;94892.13;;;0.92;100.00
42001;BME280;27689;48.390;10.856;2022-12-10T04:36:26;94888.97;;;0.89;100.00
42001;BME280;27689;48.390;10.856;2022-12-10T04:39:11;94882.28;;;0.86;100.00
42001;BME280;27689;48.390;10.856;2022-12-10T04:41:56;94884.88;;;0.86;100.00
42001;BME280;27689;48.390;10.856;2022-12-10T04:44:40;94890.72;;;0.88;100.00
42001;BME280;27689;48.390;10.856;2022-12-10T04:47:24;94890.59;;;0.79;100.00
42001;BME280;27689;48.390;10.856;2022-12-10T04:50:09;94893.88;;;0.81;100.00
42001;BME280;27689;48.390;10.856;2022-12-10T04:52:53;94883.81;;;0.78;100.00
42001;BME280;27689;48.390;10.856;2022-12-10T04:55:37;94885.91;;;0.84;100.00
42001;BME280;27689;48.390;10.856;2022-12-10T04:58:21;94890.97;;;0.85;100.00
42001;BME280;27689;48.390;10.856;2022-12-10T05:01:08;94901.72;;;0.79;100.00
42001;BME280;27689;48.390;10.856;2022-12-10T05:03:53;94889.88;;;0.77;100.00
42001;BME280;27689;48.390;10.856;2022-12-10T05:06:38;94897.50;;;0.78;100.00
42001;BME280;27689;48.390;10.856;2022-12-10T05:09:22;94897.41;;;0.80;100.00
42001;BME280;27689;48.390;10.856;2022-12-10T05:12:07;94895.63;;;0.80;100.00
42001;BME280;27689;48.390;10.856;2022-12-10T05:14:51;94896.47;;;0.81;100.00
42001;BME280;27689;48.390;10.856;2022-12-10T05:17:35;94887.78;;;0.82;100.00
42001;BME280;27689;48.390;10.856;2022-12-10T05:20:19;94889.53;;;0.81;100.00
42001;BME280;27689;48.390;10.856;2022-12-10T05:23:03;94878.75;;;0.76;100.00
42001;BME280;27689;48.390;10.856;2022-12-10T05:26:23;94877.81;;;0.77;100.00
42001;BME280;27689;48.390;10.856;2022-12-10T05:29:07;94874.09;;;0.81;100.00
42001;BME280;27689;48.390;10.856;2022-12-10T05:31:52;94875.03;;;0.80;100.00
42001;BME280;27689;48.390;10.856;2022-12-10T05:34:35;94870.91;;;0.78;100.00
42001;BME280;27689;48.390;10.856;2022-12-10T05:37:19;94866.56;;;0.78;100.00
42001;BME280;27689;48.390;10.856;2022-12-10T05:40:04;94865.66;;;0.79;100.00
42001;BME280;27689;48.390;10.856;2022-12-10T05:42:48;94860.03;;;0.74;100.00
42001;BME280;27689;48.390;10.856;2022-12-10T05:45:32;94871.72;;;0.78;100.00
42001;BME280;27689;48.390;10.856;2022-12-10T05:48:16;94869.16;;;0.78;100.00
42001;BME280;27689;48.390;10.856;2022-12-10T05:51:15;94864.13;;;0.77;100.00
42001;BME280;27689;48.390;10.856;2022-12-10T05:54:04;94870.09;;;0.77;100.00
42001;BME280;27689;48.390;10.856;2022-12-10T05:56:48;94878.41;;;0.81;100.00
42001;BME280;27689;48.390;10.856;2022-12-10T05:59:33;94890.25;;;0.83;100.00
42001;BME280;27689;48.390;10.856;2022-12-10T06:02:17;94888.84;;;0.79;100.00
42001;BME280;27689;48.390;10.856;2022-12-10T06:05:01;94887.91;;;0.80;100.00
42001;BME280;27689;48.390;10.856;2022-12-10T06:07:45;94886.03;;;0.82;100.00
42001;BME280;27689;48.390;10.856;2022-12-10T06:10:29;94892.00;;;0.83;100.00
42001;BME280;27689;48.390;10.856;2022-12-10T06:13:13;94899.16;;;0.79;100.00
42001;BME280;27689;48.390;10.856;2022-12-10T06:15:57;94901.03;;;0.77;100.00
42001;BME280;27689;48.390;10.856;2022-12-10T06:18:41;94900.09;;;0.78;100.00
42001;BME280;27689;48.390;10.856;2022-12-10T06:21:25;94899.38;;;0.76;100.00
42001;BME280;27689;48.390;10.856;2022-12-10T06:24:10;94902.22;;;0.73;100.00
42001;BME280;27689;48.390;10.856;2022-12-10T06:26:54;94911.59;;;0.74;100.00
42001;BME280;27689;48.390;10.856;2022-12-10T06:29:37;94919.31;;;0.74;100.00
42001;BME280;27689;48.390;10.856;2022-12-10T06:32:21;94924.59;;;0.73;100.00
42001;BME280;27689;48.390;10.856;2022-12-10T06:35:05;94926.09;;;0.75;100.00
42001;BME280;27689;48.390;10.856;2022-12-10T06:37:50;94921.91;;;0.74;100.00
42001;BME280;27689;48.390;10.856;2022-12-10T06:40:34;94921.91;;;0.74;100.00
42001;BME280;27689;48.390;10.856;2022-12-10T06:43:18;94925.28;;;0.75;100.00
42001;BME280;27689;48.390;10.856;2022-12-10T06:46:09;94938.75;;;0.78;100.00
42001;BME280;27689;48.390;10.856;2022-12-10T06:48:53;94950.94;;;0.76;100.00
42001;BME280;27689;48.390;10.856;2022-12-10T06:51:37;94946.47;;;0.78;100.00
42001;BME280;27689;48.390;10.856;2022-12-10T06:54:22;94957.72;;;0.77;100.00
42001;BME280;27689;48.390;10.856;2022-12-10T06:57:06;94938.41;;;0.72;100.00
42001;BME280;27689;48.390;10.856;2022-12-10T06:59:50;94945.66;;;0.78;100.00
42001;BME280;27689;48.390;10.856;2022-12-10T07:02:34;94946.47;;;0.78;100.00
42001;BME280;27689;48.390;10.856;2022-12-10T07:05:18;94952.56;;;0.77;100.00
42001;BME280;27689;48.390;10.856;2022-12-10T07:08:02;94948.13;;;0.79;100.00
42001;BME280;27689;48.390;10.856;2022-12-10T07:10:46;94932.78;;;0.78;100.00
42001;BME280;27689;48.390;10.856;2022-12-10T07:13:30;94929.16;;;0.80;100.00
42001;BME280;27689;48.390;10.856;2022-12-10T07:16:16;94935.72;;;0.84;100.00
42001;BME280;27689;48.390;10.856;2022-12-10T07:19:01;94946.25;;;0.81;100.00
42001;BME280;27689;48.390;10.856;2022-12-10T07:21:46;94951.53;;;0.80;100.00
42001;BME280;27689;48.390;10.856;2022-12-10T07:24:30;94961.72;;;0.81;100.00
42001;BME280;27689;48.390;10.856;2022-12-10T07:27:14;94960.06;;;0.80;100.00
42001;BME280;27689;48.390;10.856;2022-12-10T07:29:58;94958.53;;;0.78;100.00
42001;BME280;27689;48.390;10.856;2022-12-10T07:32:42;94960.31;;;0.77;100.00
42001;BME280;27689;48.390;10.856;2022-12-10T07:35:26;94953.28;;;0.79;100.00
42001;BME280;27689;48.390;10.856;2022-12-10T07:38:10;94961.38;;;0.86;100.00
42001;BME280;27689;48.390;10.856;2022-12-10T07:40:54;94965.72;;;0.85;100.00
42001;BME280;27689;48.390;10.856;2022-12-10T07:43:40;94959.97;;;0.82;100.00
42001;BME280;27689;48.390;10.856;2022-12-10T07:46:28;94964.66;;;0.88;100.00
42001;BME280;27689;48.390;10.856;2022-12-10T07:49:13;94954.91;;;0.91;100.00
42001;BME280;27689;48.390;10.856;2022-12-10T07:51:57;94953.97;;;0.92;100.00
42001;BME280;27689;48.390;10.856;2022-12-10T07:54:41;94955.75;;;0.92;100.00
42001;BME280;27689;48.390;10.856;2022-12-10T07:57:25;94952.00;;;0.96;100.00
42001;BME280;27689;48.390;10.856;2022-12-10T08:00:09;94948.72;;;0.94;100.00
42001;BME280;27689;48.390;10.856;2022-12-10T08:02:54;94941.91;;;0.93;100.00
42001;BME280;27689;48.390;10.856;2022-12-10T08:05:38;94955.63;;;0.93;100.00
42001;BME280;27689;48.390;10.856;2022-12-10T08:08:22;94952.09;;;0.94;100.00
42001;BME280;27689;48.390;10.856;2022-12-10T08:11:07;94951.28;;;0.94;100.00
42001;BME280;27689;48.390;10.856;2022-12-10T08:13:54;94952.94;;;0.95;100.00
42001;BME280;27689;48.390;10.856;2022-12-10T08:16:38;94940.97;;;0.94;100.00
42001;BME280;27689;48.390;10.856;2022-12-10T08:19:22;94939.34;;;0.93;100.00
42001;BME280;27689;48.390;10.856;2022-12-10T08:22:07;94949.66;;;0.93;100.00
42001;BME280;27689;48.390;10.856;2022-12-10T08:24:51;94954.91;;;0.91;100.00
42001;BME280;27689;48.390;10.856;2022-12-10T08:27:35;94944.50;;;0.93;100.00
42001;BME280;27689;48.390;10.856;2022-12-10T08:30:20;94946.38;;;0.91;100.00
42001;BME280;27689;48.390;10.856;2022-12-10T08:33:04;94952.22;;;0.93;100.00
42001;BME280;27689;48.390;10.856;2022-12-10T08:35:48;94952.34;;;0.91;100.00
42001;BME280;27689;48.390;10.856;2022-12-10T08:38:33;94948.94;;;0.91;100.00
42001;BME280;27689;48.390;10.856;2022-12-10T08:41:20;94955.63;;;0.93;100.00
42001;BME280;27689;48.390;10.856;2022-12-10T08:44:05;94963.34;;;0.93;100.00
42001;BME280;27689;48.390;10.856;2022-12-10T08:46:49;94964.88;;;0.96;100.00
42001;BME280;27689;48.390;10.856;2022-12-10T08:49:33;94969.00;;;0.98;100.00
42001;BME280;27689;48.390;10.856;2022-12-10T08:52:17;94962.78;;;1.01;100.00
42001;BME280;27689;48.390;10.856;2022-12-10T08:55:02;94965.25;;;1.02;100.00
42001;BME280;27689;48.390;10.856;2022-12-10T08:57:46;94974.50;;;1.05;100.00
42001;BME280;27689;48.390;10.856;2022-12-10T09:00:30;94974.38;;;1.06;100.00
42001;BME280;27689;48.390;10.856;2022-12-10T09:03:14;94983.97;;;1.04;100.00
42001;BME280;27689;48.390;10.856;2022-12-10T09:06:08;94972.63;;;1.07;100.00
42001;BME280;27689;48.390;10.856;2022-12-10T09:08:52;94982.09;;;1.06;100.00
42001;BME280;27689;48.390;10.856;2022-12-10T09:11:36;94970.16;;;1.05;100.00
42001;BME280;27689;48.390;10.856;2022-12-10T09:14:20;94962.53;;;1.04;100.00
42001;BME280;27689;48.390;10.856;2022-12-10T09:17:04;94969.34;;;1.16;100.00
42001;BME280;27689;48.390;10.856;2022-12-10T09:19:49;94970.63;;;1.11;100.00
42001;BME280;27689;48.390;10.856;2022-12-10T09:22:33;94964.53;;;1.12;100.00
42001;BME280;27689;48.390;10.856;2022-12-10T09:25:20;94969.47;;;1.15;100.00
42001;BME280;27689;48.390;10.856;2022-12-10T09:28:05;94970.16;;;1.17;100.00
42001;BME280;27689;48.390;10.856;2022-12-10T09:30:59;94969.09;;;1.19;100.00
42001;BME280;27689;48.390;10.856;2022-12-10T09:33:44;94982.56;;;1.23;100.00
42001;BME280;27689;48.390;10.856;2022-12-10T09:36:28;94958.22;;;1.16;100.00
42001;BME280;27689;48.390;10.856;2022-12-10T09:39:13;94973.09;;;1.23;100.00
42001;BME280;27689;48.390;10.856;2022-12-10T09:45:31;94981.53;;;1.25;100.00
42001;BME280;27689;48.390;10.856;2022-12-10T09:48:21;94981.28;;;1.28;100.00
42001;BME280;27689;48.390;10.856;2022-12-10T09:51:16;94978.84;;;1.27;100.00
42001;BME280;27689;48.390;10.856;2022-12-10T09:54:18;94975.66;;;1.23;100.00
42001;BME280;27689;48.390;10.856;2022-12-10T09:57:03;94980.47;;;1.28;100.00
42001;BME280;27689;48.390;10.856;2022-12-10T09:59:51;94975.88;;;1.20;100.00
42001;BME280;27689;48.390;10.856;2022-12-10T10:02:35;94969.09;;;1.30;100.00
42001;BME280;27689;48.390;10.856;2022-12-10T10:05:25;94974.81;;;1.34;100.00
42001;BME280;27689;48.390;10.856;2022-12-10T10:08:27;94974.59;;;1.37;100.00
42001;BME280;27689;48.390;10.856;2022-12-10T10:11:17;94967.34;;;1.20;100.00
42001;BME280;27689;48.390;10.856;2022-12-10T10:14:38;94977.78;;;1.29;100.00
42001;BME280;27689;48.390;10.856;2022-12-10T10:17:42;94975.19;;;1.29;100.00
42001;BME280;27689;48.390;10.856;2022-12-10T10:20:29;94976.97;;;1.18;100.00
42001;BME280;27689;48.390;10.856;2022-12-10T10:23:15;94968.31;;;1.19;100.00
42001;BME280;27689;48.390;10.856;2022-12-10T10:25:59;94987.97;;;1.20;100.00
42001;BME280;27689;48.390;10.856;2022-12-10T10:28:43;94980.38;;;1.18;100.00
42001;BME280;27689;48.390;10.856;2022-12-10T10:31:31;94980.00;;;1.12;100.00
42001;BME280;27689;48.390;10.856;2022-12-10T10:34:22;94986.69;;;1.25;100.00
42001;BME280;27689;48.390;10.856;2022-12-10T10:37:15;94989.38;;;1.24;100.00
42001;BME280;27689;48.390;10.856;2022-12-10T10:40:00;94991.38;;;1.20;100.00
42001;BME280;27689;48.390;10.856;2022-12-10T10:42:45;94998.88;;;1.12;100.00
42001;BME280;27689;48.390;10.856;2022-12-10T10:45:36;94996.75;;;1.06;100.00
42001;BME280;27689;48.390;10.856;2022-12-10T10:48:24;94990.78;;;1.05;100.00
42001;BME280;27689;48.390;10.856;2022-12-10T10:53:56;94977.31;;;1.13;100.00
42001;BME280;27689;48.390;10.856;2022-12-10T10:56:42;94986.34;;;1.08;100.00
42001;BME280;27689;48.390;10.856;2022-12-10T10:59:33;95000.53;;;1.13;100.00
42001;BME280;27689;48.390;10.856;2022-12-10T11:02:34;94981.75;;;1.11;100.00
42001;BME280;27689;48.390;10.856;2022-12-10T11:05:25;94975.44;;;1.15;100.00
42001;BME280;27689;48.390;10.856;2022-12-10T11:08:17;94967.22;;;1.10;100.00
42001;BME280;27689;48.390;10.856;2022-12-10T11:11:05;94973.91;;;1.24;100.00
42001;BME280;27689;48.390;10.856;2022-12-10T11:13:49;94980.00;;;1.12;100.00
42001;BME280;27689;48.390;10.856;2022-12-10T11:16:34;94975.34;;;1.17;100.00
42001;BME280;27689;48.390;10.856;2022-12-10T11:19:23;94975.19;;;1.07;100.00
42001;BME280;27689;48.390;10.856;2022-12-10T11:22:23;94970.03;;;1.07;100.00
42001;BME280;27689;48.390;10.856;2022-12-10T11:25:11;94974.16;;;1.10;100.00
42001;BME280;27689;48.390;10.856;2022-12-10T11:28:09;94978.00;;;1.04;100.00
42001;BME280;27689;48.390;10.856;2022-12-10T11:31:20;94986.47;;;1.28;100.00
42001;BME280;27689;48.390;10.856;2022-12-10T11:37:16;94983.31;;;1.02;100.00
42001;BME280;27689;48.390;10.856;2022-12-10T12:04:46;94993.13;;;1.20;100.00
42001;BME280;27689;48.390;10.856;2022-12-10T12:07:41;94986.00;;;1.12;100.00
42001;BME280;27689;48.390;10.856;2022-12-10T12:13:29;94984.13;;;1.14;100.00
42001;BME280;27689;48.390;10.856;2022-12-10T12:16:21;94968.41;;;1.06;100.00
42001;BME280;27689;48.390;10.856;2022-12-10T12:19:15;94983.16;;;1.04;100.00
42001;BME280;27689;48.390;10.856;2022-12-10T12:22:11;94985.66;;;1.17;100.00
42001;BME280;27689;48.390;10.856;2022-12-10T12:25:01;95003.44;;;1.20;100.00
42001;BME280;27689;48.390;10.856;2022-12-10T12:27:54;94994.78;;;1.21;100.00
42001;BME280;27689;48.390;10.856;2022-12-10T12:30:41;94996.75;;;1.06;100.00
42001;BME280;27689;48.390;10.856;2022-12-10T12:33:49;95012.59;;;1.13;100.00
42001;BME280;27689;48.390;10.856;2022-12-10T12:36:36;95016.81;;;1.14;100.00
42001;BME280;27689;48.390;10.856;2022-12-10T12:42:29;95029.00;;;1.12;100.00
42001;BME280;27689;48.390;10.856;2022-12-10T12:45:31;95029.00;;;1.12;100.00
42001;BME280;27689;48.390;10.856;2022-12-10T12:48:18;95032.75;;;1.08;100.00
42001;BME280;27689;48.390;10.856;2022-12-10T12:51:18;95031.81;;;1.09;100.00
42001;BME280;27689;48.390;10.856;2022-12-10T12:54:04;95034.88;;;1.02;100.00
42001;BME280;27689;48.390;10.856;2022-12-10T12:56:57;95029.72;;;1.14;100.00
42001;BME280;27689;48.390;10.856;2022-12-10T13:05:34;95045.63;;;1.08;100.00
42001;BME280;27689;48.390;10.856;2022-12-10T13:17:01;95050.66;;;0.87;100.00
42001;BME280;27689;48.390;10.856;2022-12-10T13:19:45;95051.94;;;0.81;100.00
42001;BME280;27689;48.390;10.856;2022-12-10T13:22:41;95059.78;;;0.80;100.00
42001;BME280;27689;48.390;10.856;2022-12-10T13:28:49;95072.34;;;0.84;100.00
42001;BME280;27689;48.390;10.856;2022-12-10T13:31:35;95057.78;;;0.72;100.00
42001;BME280;27689;48.390;10.856;2022-12-10T13:34:23;95069.75;;;0.84;100.00
42001;BME280;27689;48.390;10.856;2022-12-10T13:37:28;95079.47;;;0.81;100.00
42001;BME280;27689;48.390;10.856;2022-12-10T13:46:32;95083.78;;;0.69;100.00
42001;BME280;27689;48.390;10.856;2022-12-10T13:49:19;95081.63;;;0.63;100.00
42001;BME280;27689;48.390;10.856;2022-12-10T13:52:14;95090.06;;;0.65;100.00
42001;BME280;27689;48.390;10.856;2022-12-10T13:55:15;95092.88;;;0.62;100.00
42001;BME280;27689;48.390;10.856;2022-12-10T13:58:08;95105.53;;;0.65;100.00
42001;BME280;27689;48.390;10.856;2022-12-10T14:07:07;95117.06;;;0.72;100.00
42001;BME280;27689;48.390;10.856;2022-12-10T14:09:56;95114.31;;;0.62;100.00
42001;BME280;27689;48.390;10.856;2022-12-10T14:12:42;95124.28;;;0.67;100.00
42001;BME280;27689;48.390;10.856;2022-12-10T14:15:28;95130.03;;;0.59;100.00
42001;BME280;27689;48.390;10.856;2022-12-10T14:18:15;95136.31;;;0.55;100.00
42001;BME280;27689;48.390;10.856;2022-12-10T14:21:03;95142.22;;;0.45;100.00
42001;BME280;27689;48.390;10.856;2022-12-10T14:23:49;95130.44;;;0.53;100.00
42001;BME280;27689;48.390;10.856;2022-12-10T14:26:35;95139.31;;;0.49;100.00
42001;BME280;27689;48.390;10.856;2022-12-10T14:29:20;95149.19;;;0.55;100.00
42001;BME280;27689;48.390;10.856;2022-12-10T14:32:05;95152.59;;;0.56;100.00
42001;BME280;27689;48.390;10.856;2022-12-10T14:34:54;95161.69;;;0.49;100.00
42001;BME280;27689;48.390;10.856;2022-12-10T14:37:42;95157.75;;;0.56;100.00
42001;BME280;27689;48.390;10.856;2022-12-10T14:40:30;95165.03;;;0.62;100.00
42001;BME280;27689;48.390;10.856;2022-12-10T14:43:19;95169.09;;;0.53;100.00
42001;BME280;27689;48.390;10.856;2022-12-10T14:46:06;95163.84;;;0.55;100.00
42001;BME280;27689;48.390;10.856;2022-12-10T14:48:55;95167.66;;;0.49;100.00
42001;BME280;27689;48.390;10.856;2022-12-10T14:51:40;95174.63;;;0.60;100.00
42001;BME280;27689;48.390;10.856;2022-12-10T14:54:32;95178.25;;;0.57;100.00
42001;BME280;27689;48.390;10.856;2022-12-10T14:57:35;95189.72;;;0.53;100.00
42001;BME280;27689;48.390;10.856;2022-12-10T15:00:22;95180.53;;;0.49;100.00
42001;BME280;27689;48.390;10.856;2022-12-10T15:03:09;95183.88;;;0.39;100.00
42001;BME280;27689;48.390;10.856;2022-12-10T15:06:02;95201.31;;;0.35;100.00
42001;BME280;27689;48.390;10.856;2022-12-10T15:08:55;95199.56;;;0.35;100.00
42001;BME280;27689;48.390;10.856;2022-12-10T15:11:42;95187.31;;;0.26;100.00
42001;BME280;27689;48.390;10.856;2022-12-10T15:14:28;95194.34;;;0.24;100.00
42001;BME280;27689;48.390;10.856;2022-12-10T15:17:36;95206.41;;;0.11;100.00
42001;BME280;27689;48.390;10.856;2022-12-10T15:20:27;95200.34;;;0.12;100.00
42001;BME280;27689;48.390;10.856;2022-12-10T15:29:29;95218.03;;;0.17;100.00
42001;BME280;27689;48.390;10.856;2022-12-10T15:32:26;95212.50;;;0.10;100.00
42001;BME280;27689;48.390;10.856;2022-12-10T15:35:12;95213.13;;;0.14;100.00
42001;BME280;27689;48.390;10.856;2022-12-10T15:37:58;95212.69;;;0.07;100.00
42001;BME280;27689;48.390;10.856;2022-12-10T15:40:44;95216.00;;;0.09;100.00
42001;BME280;27689;48.390;10.856;2022-12-10T15:43:29;95215.56;;;0.15;100.00
42001;BME280;27689;48.390;10.856;2022-12-10T15:46:17;95215.28;;;0.07;100.00
42001;BME280;27689;48.390;10.856;2022-12-10T15:49:02;95199.03;;;-0.06;100.00
42001;BME280;27689;48.390;10.856;2022-12-10T15:51:46;95207.97;;;0.01;100.00
42001;BME280;27689;48.390;10.856;2022-12-10T15:57:19;95218.88;;;0.05;100.00
42001;BME280;27689;48.390;10.856;2022-12-10T16:00:07;95220.34;;;-0.04;100.00
42001;BME280;27689;48.390;10.856;2022-12-10T16:03:05;95229.25;;;0.16;100.00
42001;BME280;27689;48.390;10.856;2022-12-10T16:05:55;95232.16;;;0.11;100.00
42001;BME280;27689;48.390;10.856;2022-12-10T16:08:38;95232.16;;;0.11;100.00